createdAt,value
2018-06-22T00:00:23.058Z,101036.99
2018-06-22T00:05:25.188Z,101029.75
2018-06-22T00:10:27.330Z,101036.07
2018-06-22T00:15:29.513Z,101031.93
2018-06-22T00:20:31.674Z,101029.53
2018-06-22T00:25:33.823Z,101026.83
2018-06-22T00:30:35.956Z,101029.01
2018-06-22T00:35:38.111Z,101034.41
2018-06-22T00:40:40.221Z,101025.04
2018-06-22T00:45:42.351Z,101034.77
2018-06-22T00:50:44.489Z,101026.48
2018-06-22T00:55:46.613Z,101027.86
2018-06-22T01:00:48.747Z,101040.64
2018-06-22T01:05:50.888Z,101030.40
2018-06-22T01:10:52.994Z,101026.95
2018-06-22T01:15:55.136Z,101030.84
2018-06-22T01:20:57.265Z,101026.17
2018-06-22T01:25:59.408Z,101018.58
2018-06-22T01:31:01.584Z,101017.45
2018-06-22T01:36:03.763Z,101018.14
2018-06-22T01:41:05.882Z,101011.13
2018-06-22T01:46:08.037Z,101011.52
2018-06-22T01:51:10.167Z,101013.22
2018-06-22T01:56:12.274Z,101015.75
2018-06-22T02:01:14.365Z,101020.77
2018-06-22T02:06:16.464Z,101013.26
2018-06-22T02:11:18.630Z,101014.62
2018-06-22T02:16:20.814Z,101021.06
2018-06-22T02:21:22.974Z,101017.15
2018-06-22T02:26:25.109Z,101022.91
2018-06-22T02:31:27.246Z,101016.63
2018-06-22T02:36:29.372Z,101012.66
2018-06-22T02:41:31.493Z,101015.09
2018-06-22T02:46:33.633Z,101013.26
2018-06-22T02:51:35.916Z,101024.20
2018-06-22T02:56:38.064Z,101038.65
2018-06-22T03:01:40.197Z,101036.61
2018-06-22T03:06:42.315Z,101035.94
2018-06-22T03:11:44.419Z,101037.64
2018-06-22T03:16:46.569Z,101029.70
2018-06-22T03:21:48.662Z,101032.63
2018-06-22T03:26:50.789Z,101029.52
2018-06-22T03:31:52.941Z,101038.02
2018-06-22T03:36:55.088Z,101048.55
2018-06-22T03:41:57.215Z,101047.47
2018-06-22T03:46:59.348Z,101057.15
2018-06-22T03:52:01.468Z,101052.65
2018-06-22T03:57:03.570Z,101048.67
2018-06-22T04:02:05.770Z,101044.89
2018-06-22T04:12:38.844Z,101038.81
2018-06-22T04:17:47.075Z,101047.07
2018-06-22T04:22:50.079Z,101046.66
2018-06-22T04:27:52.558Z,101057.24
2018-06-22T04:32:54.640Z,101064.66
2018-06-22T04:37:56.826Z,101070.05
2018-06-22T04:42:58.949Z,101066.82
2018-06-22T04:48:01.084Z,101066.15
2018-06-22T04:53:03.225Z,101063.45
2018-06-22T04:58:05.344Z,101072.91
2018-06-22T05:03:07.466Z,101074.51
2018-06-22T05:08:09.916Z,101072.13
2018-06-22T05:13:12.188Z,101080.02
2018-06-22T05:18:14.343Z,101087.42
2018-06-22T05:23:16.482Z,101095.22
2018-06-22T05:28:18.588Z,101099.66
2018-06-22T05:33:20.698Z,101103.34
2018-06-22T05:38:22.838Z,101109.52
2018-06-22T05:43:25.005Z,101110.84
2018-06-22T05:48:27.180Z,101124.93
2018-06-22T05:53:29.319Z,101122.40
2018-06-22T05:58:31.470Z,101133.72
2018-06-22T06:03:33.644Z,101140.81
2018-06-22T06:08:35.809Z,101147.54
2018-06-22T06:13:37.987Z,101151.75
2018-06-22T06:18:40.152Z,101162.34
2018-06-22T06:28:57.871Z,101173.06
2018-06-22T06:33:59.965Z,101183.97
2018-06-22T06:39:02.125Z,101185.73
2018-06-22T06:44:04.285Z,101190.80
2018-06-22T06:49:06.444Z,101203.41
2018-06-22T06:54:08.571Z,101208.34
2018-06-22T06:59:10.687Z,101212.89
2018-06-22T07:04:12.829Z,101212.64
2018-06-22T07:09:14.946Z,101216.67
2018-06-22T07:14:17.141Z,101216.11
2018-06-22T07:19:19.310Z,101220.20
2018-06-22T07:24:21.489Z,101233.05
2018-06-22T07:29:25.626Z,101244.30
2018-06-22T07:34:27.744Z,101254.48
2018-06-22T07:39:29.879Z,101248.72
2018-06-22T07:44:32.087Z,101257.65
2018-06-22T07:49:34.301Z,101268.56
2018-06-22T07:54:36.479Z,101262.54
2018-06-22T07:59:38.962Z,101260.27
2018-06-22T08:04:41.122Z,101257.71
2018-06-22T08:09:43.305Z,101261.59
2018-06-22T08:14:45.442Z,101272.35
2018-06-22T08:19:47.662Z,101270.36
2018-06-22T08:24:49.893Z,101269.23
2018-06-22T08:29:52.038Z,101271.53
2018-06-22T08:34:54.192Z,101284.52
2018-06-22T08:39:56.543Z,101286.59
2018-06-22T08:44:58.672Z,101296.88
2018-06-22T08:50:00.993Z,101298.27
2018-06-22T08:55:03.132Z,101296.03
2018-06-22T09:00:05.298Z,101294.81
2018-06-22T09:05:07.619Z,101316.62
2018-06-22T09:10:09.787Z,101297.71
2018-06-22T09:15:11.954Z,101311.06
2018-06-22T09:20:14.133Z,101319.05
2018-06-22T09:25:16.299Z,101321.11
2018-06-22T09:30:18.450Z,101321.24
2018-06-22T09:35:21.006Z,101317.39
2018-06-22T09:40:23.180Z,101307.59
2018-06-22T09:45:25.337Z,101321.48
2018-06-22T09:50:27.512Z,101330.92
2018-06-22T09:55:29.667Z,101334.36
2018-06-22T10:00:31.851Z,101323.49
2018-06-22T10:05:33.974Z,101328.84
2018-06-22T10:10:36.120Z,101336.02
2018-06-22T10:15:38.300Z,101334.47
2018-06-22T10:20:40.498Z,101336.20
2018-06-22T10:25:43.247Z,101344.23
2018-06-22T10:30:45.558Z,101346.81
2018-06-22T10:35:47.804Z,101355.31
2018-06-22T10:40:50.077Z,101364.14
2018-06-22T10:45:52.244Z,101352.63
2018-06-22T10:50:54.476Z,101136.42
2018-06-22T10:55:56.734Z,101370.74
2018-06-22T11:00:58.947Z,101379.98
2018-06-22T11:06:06.568Z,101388.52
2018-06-22T11:11:09.158Z,101389.75
2018-06-22T11:16:18.154Z,101391.32
2018-06-22T11:21:20.538Z,101394.25
2018-06-22T11:26:22.726Z,101397.27
2018-06-22T11:31:24.910Z,101398.36
2018-06-22T11:36:27.164Z,101402.77
2018-06-22T11:41:29.348Z,101412.02
2018-06-22T11:46:31.528Z,101407.14
2018-06-22T11:51:33.816Z,101418.75
2018-06-22T11:56:35.978Z,101416.69
2018-06-22T12:01:38.210Z,101414.38
2018-06-22T12:06:40.451Z,101427.69
2018-06-22T12:11:42.708Z,101422.76
2018-06-22T12:16:44.875Z,101431.87
2018-06-22T12:21:47.079Z,101430.80
2018-06-22T12:26:49.253Z,101435.73
2018-06-22T12:31:52.169Z,101450.03
2018-06-22T12:36:54.356Z,101467.05
2018-06-22T12:41:56.587Z,101449.73
2018-06-22T12:46:58.803Z,101449.41
2018-06-22T12:52:00.993Z,101454.11
2018-06-22T12:57:03.247Z,101451.17
2018-06-22T13:02:05.699Z,101468.58
2018-06-22T13:07:07.897Z,101476.22
2018-06-22T13:12:10.098Z,101458.47
2018-06-22T13:17:12.446Z,101464.04
2018-06-22T13:22:14.701Z,101461.69
2018-06-22T13:27:16.864Z,101467.69
2018-06-22T13:32:19.091Z,101474.37
2018-06-22T13:37:21.278Z,101482.33
2018-06-22T13:42:23.494Z,101471.14
2018-06-22T13:47:25.701Z,101489.21
2018-06-22T13:52:28.583Z,101492.19
2018-06-22T13:57:30.808Z,101471.84
2018-06-22T14:02:32.983Z,101487.98
2018-06-22T14:07:35.196Z,101487.33
2018-06-22T14:12:37.413Z,101492.47
2018-06-22T14:17:39.710Z,101497.57
2018-06-22T14:22:42.354Z,101493.12
2018-06-22T14:27:44.611Z,101503.55
2018-06-22T14:32:46.845Z,101516.62
2018-06-22T14:37:49.127Z,101516.15
2018-06-22T14:42:51.443Z,101520.41
2018-06-22T14:47:53.645Z,101521.78
2018-06-22T14:52:55.883Z,101525.64
2018-06-22T14:58:03.700Z,101527.66
2018-06-22T15:03:11.611Z,101523.58
2018-06-22T15:08:18.658Z,101525.23
2018-06-22T15:13:20.864Z,101527.92
2018-06-22T15:18:23.053Z,101530.20
2018-06-22T15:23:25.317Z,101545.81
2018-06-22T15:28:27.524Z,101549.89
2018-06-22T15:33:35.408Z,101555.59
2018-06-22T15:38:43.316Z,101552.36
2018-06-22T15:43:51.266Z,101552.75
2018-06-22T15:48:59.243Z,101554.33
2018-06-22T15:54:07.075Z,101557.03
2018-06-22T15:59:09.343Z,101560.84
2018-06-22T16:04:12.301Z,101554.69
2018-06-22T16:09:14.488Z,101547.52
2018-06-22T16:14:22.456Z,101546.20
2018-06-22T16:19:30.408Z,101554.28
2018-06-22T16:24:38.138Z,101549.52
2018-06-22T16:29:40.323Z,101553.73
2018-06-22T16:34:42.499Z,101562.63
2018-06-22T16:39:44.719Z,101565.39
2018-06-22T16:44:46.850Z,101561.41
2018-06-22T16:49:49.017Z,101554.42
2018-06-22T16:54:51.218Z,101562.25
2018-06-22T16:59:53.392Z,101560.31
2018-06-22T17:04:55.588Z,101554.25
2018-06-22T17:10:03.526Z,101558.52
2018-06-22T17:15:11.533Z,101530.72
2018-06-22T17:20:13.721Z,101550.12
2018-06-22T17:25:15.894Z,101554.59
2018-06-22T17:30:18.063Z,101557.10
2018-06-22T17:35:20.234Z,101553.08
2018-06-22T17:40:22.412Z,101545.30
2018-06-22T17:45:24.606Z,101566.42
2018-06-22T17:50:29.100Z,101555.20
2018-06-22T17:55:31.290Z,101556.19
2018-06-22T18:00:39.125Z,101553.13
2018-06-22T18:05:47.122Z,101559.47
2018-06-22T18:10:55.113Z,101575.59
2018-06-22T18:15:57.325Z,101568.28
2018-06-22T18:21:00.296Z,101569.73
2018-06-22T18:26:02.548Z,101570.73
2018-06-22T18:31:04.976Z,101578.25
2018-06-22T18:36:07.147Z,101572.13
2018-06-22T18:41:09.348Z,101565.50
2018-06-22T18:46:11.549Z,101564.31
2018-06-22T18:51:13.757Z,101587.66
2018-06-22T18:56:21.746Z,101567.47
2018-06-22T19:01:29.745Z,101554.94
2018-06-22T19:06:31.942Z,101553.44
2018-06-22T19:11:34.152Z,101547.25
2018-06-22T19:16:36.473Z,101553.50
2018-06-22T19:21:38.770Z,101558.24
2018-06-22T19:26:40.996Z,101564.17
2018-06-22T19:31:43.193Z,101555.34
2018-06-22T19:36:45.385Z,101551.95
2018-06-22T19:41:47.591Z,101559.12
2018-06-22T19:46:55.656Z,101569.52
2018-06-22T19:52:03.522Z,101575.47
2018-06-22T19:57:05.730Z,101581.75
2018-06-22T20:02:07.949Z,101584.54
2018-06-22T20:07:10.200Z,101591.70
2018-06-22T20:12:12.400Z,101596.97
2018-06-22T20:17:14.664Z,101594.52
2018-06-22T20:22:16.854Z,101603.20
2018-06-22T20:27:19.045Z,101598.47
2018-06-22T20:32:21.284Z,101599.31
2018-06-22T20:37:29.174Z,101598.61
2018-06-22T20:42:37.098Z,101597.88
2018-06-22T20:47:45.061Z,101594.90
2018-06-22T20:52:47.237Z,101596.56
2018-06-22T20:57:49.433Z,101597.77
2018-06-22T21:02:51.633Z,101598.81
2018-06-22T21:07:53.797Z,101607.79
2018-06-22T21:12:56.147Z,101602.19
2018-06-22T21:17:58.344Z,101610.66
2018-06-22T21:23:00.533Z,101617.39
2018-06-22T21:28:08.441Z,101616.44
2018-06-22T21:33:16.428Z,101620.25
2018-06-22T21:39:24.568Z,101633.45
2018-06-22T21:44:26.782Z,101632.91
2018-06-22T21:49:29.046Z,101628.16
2018-06-22T21:54:31.264Z,101640.48
2018-06-22T21:59:33.452Z,101635.69
2018-06-22T22:04:35.619Z,101623.09
2018-06-22T22:09:40.781Z,101629.03
2018-06-22T22:14:42.993Z,101624.48
2018-06-22T22:19:45.183Z,101626.56
2018-06-22T22:24:47.441Z,101624.36
2018-06-22T22:29:49.674Z,101629.94
2018-06-22T22:34:51.929Z,101629.55
2018-06-22T22:39:54.073Z,101626.80
2018-06-22T22:44:56.360Z,101631.33
2018-06-22T22:49:58.549Z,101625.88
2018-06-22T22:55:01.273Z,101632.08
2018-06-22T23:00:03.510Z,101634.67
2018-06-22T23:05:05.696Z,101630.81
2018-06-22T23:10:07.937Z,101626.87
2018-06-22T23:15:10.175Z,101627.59
2018-06-22T23:20:12.390Z,101625.81
2018-06-22T23:25:14.769Z,101615.02
2018-06-22T23:30:17.129Z,101614.47
2018-06-22T23:35:24.187Z,101609.71
2018-06-22T23:40:26.338Z,101604.65
2018-06-22T23:45:28.524Z,101610.47
2018-06-22T23:50:30.727Z,101595.91
2018-06-22T23:55:33.157Z,101598.65
